Terminal Aerodrome Forecast
Issued by NWS Albany, NY

Home | Current Version | Previous Version | Text Only | Print | Product List | Glossary On
Versions: 1 2 3 4 5 6 7 8 9 10 11 12 13 14 15 16
000
FTUS41 KALY 311731
TAFGFL
TAF
KGFL 311731Z 3118/0118 26010G16KT P6SM SCT045
     FM312300 29007KT P6SM FEW050
     FM010300 VRB03KT 5SM BR SKC
     FM010700 00000KT 3/4SM BR VV002
     FM011300 VRB03KT 6SM BR SKC
     FM011500 16005KT P6SM SKC=

USA.gov is the U.S. government's official web portal to all federal, state and local government web resources and services.